createdAt,value
2024-04-19T00:00:46.385Z,0.00
2024-04-19T00:01:46.314Z,0.10
2024-04-19T00:02:46.329Z,0.10
2024-04-19T00:03:46.459Z,0.10
2024-04-19T00:04:46.303Z,0.10
2024-04-19T00:05:46.283Z,0.10
2024-04-19T00:06:46.265Z,0.10
2024-04-19T00:07:46.236Z,0.10
2024-04-19T00:08:46.219Z,0.10
2024-04-19T00:09:46.504Z,0.10
2024-04-19T00:10:46.258Z,0.10
2024-04-19T00:11:46.191Z,0.10
2024-04-19T00:12:46.221Z,0.10
2024-04-19T00:13:46.160Z,0.10
2024-04-19T00:14:46.144Z,0.20
2024-04-19T00:15:46.257Z,0.10
2024-04-19T00:16:46.156Z,0.10
2024-04-19T00:17:46.143Z,0.10
2024-04-19T00:18:46.170Z,0.10
2024-04-19T00:19:46.096Z,0.10
2024-04-19T00:20:46.061Z,0.10
2024-04-19T00:21:46.119Z,0.10
2024-04-19T00:22:46.055Z,0.10
2024-04-19T00:23:46.038Z,0.10
2024-04-19T00:24:46.062Z,0.10
2024-04-19T00:25:45.999Z,0.10
2024-04-19T00:26:45.980Z,0.10
2024-04-19T00:27:45.998Z,0.10
2024-04-19T00:28:45.960Z,0.10
2024-04-19T00:29:45.977Z,0.10
2024-04-19T00:30:46.012Z,0.10
2024-04-19T00:31:45.939Z,0.10
2024-04-19T00:32:46.259Z,0.10
2024-04-19T00:33:46.017Z,0.10
2024-04-19T00:34:45.909Z,0.10
2024-04-19T00:35:45.872Z,0.10
2024-04-19T00:36:45.884Z,0.10
2024-04-19T00:37:45.843Z,0.10
2024-04-19T00:38:45.833Z,0.10
2024-04-19T00:39:45.949Z,0.10
2024-04-19T00:40:45.809Z,0.10
2024-04-19T00:41:45.790Z,0.10
2024-04-19T00:42:45.919Z,0.20
2024-04-19T00:43:45.765Z,0.10
2024-04-19T00:44:45.751Z,0.10
2024-04-19T00:45:45.867Z,0.10
2024-04-19T00:46:45.730Z,0.10
2024-04-19T00:47:45.825Z,0.10
2024-04-19T00:48:45.756Z,0.10
2024-04-19T00:49:45.683Z,0.10
2024-04-19T00:50:45.680Z,0.10
2024-04-19T00:51:45.701Z,0.10
2024-04-19T00:52:45.647Z,0.10
2024-04-19T00:53:45.635Z,0.10
2024-04-19T00:54:45.733Z,0.10
2024-04-19T00:55:45.602Z,0.10
2024-04-19T00:56:45.594Z,0.10
2024-04-19T00:57:45.629Z,0.10
2024-04-19T00:58:45.569Z,0.10
2024-04-19T00:59:45.555Z,0.10
2024-04-19T01:00:45.597Z,0.10
2024-04-19T01:01:45.670Z,0.10
2024-04-19T01:02:46.080Z,0.10
2024-04-19T01:03:45.575Z,0.10
2024-04-19T01:04:45.498Z,0.10
2024-04-19T01:05:45.479Z,0.10
2024-04-19T01:06:45.557Z,0.10
2024-04-19T01:07:45.454Z,0.10
2024-04-19T01:08:45.447Z,0.10
2024-04-19T01:09:45.504Z,0.10
2024-04-19T01:10:45.514Z,0.20
2024-04-19T01:11:45.396Z,0.10
2024-04-19T01:12:45.407Z,0.10
2024-04-19T01:13:45.374Z,0.10
2024-04-19T01:14:45.357Z,0.10
2024-04-19T01:15:45.430Z,0.10
2024-04-19T01:16:45.344Z,0.10
2024-04-19T01:17:45.608Z,0.10
2024-04-19T01:18:45.373Z,0.10
2024-04-19T01:19:45.294Z,0.10
2024-04-19T01:20:45.290Z,0.10
2024-04-19T01:21:45.365Z,0.10
2024-04-19T01:22:45.227Z,0.10
2024-04-19T01:23:45.212Z,0.10
2024-04-19T01:24:45.321Z,0.10
2024-04-19T01:25:45.189Z,0.10
2024-04-19T01:26:45.174Z,0.10
2024-04-19T01:27:45.235Z,0.00
2024-04-19T01:28:45.161Z,0.10
2024-04-19T01:29:45.145Z,0.10
2024-04-19T01:30:45.381Z,0.10
2024-04-19T01:31:45.159Z,0.10
2024-04-19T01:32:45.181Z,0.10
2024-04-19T01:33:45.309Z,0.10
2024-04-19T01:34:45.076Z,0.10
2024-04-19T01:35:45.055Z,0.10
2024-04-19T01:36:45.171Z,0.10
2024-04-19T01:37:45.032Z,0.10
2024-04-19T01:38:45.028Z,0.10
2024-04-19T01:39:45.100Z,0.10
2024-04-19T01:40:44.992Z,0.10
2024-04-19T01:41:44.989Z,0.10
2024-04-19T01:42:45.103Z,0.10
2024-04-19T01:43:44.950Z,0.10
2024-04-19T01:44:44.968Z,0.10
2024-04-19T01:45:45.048Z,0.10
2024-04-19T01:46:44.914Z,0.10
2024-04-19T01:47:44.941Z,0.10
2024-04-19T01:48:44.932Z,0.10
2024-04-19T01:49:44.880Z,0.10
2024-04-19T01:50:44.863Z,0.10
2024-04-19T01:51:44.987Z,0.10
2024-04-19T01:52:44.855Z,0.10
2024-04-19T01:53:44.824Z,0.10
2024-04-19T01:54:44.865Z,0.10
2024-04-19T01:55:44.803Z,0.10
2024-04-19T01:56:44.781Z,0.10
2024-04-19T01:57:44.791Z,0.20
2024-04-19T01:58:44.762Z,0.10
2024-04-19T01:59:44.748Z,0.10
2024-04-19T02:00:44.829Z,0.10
2024-04-19T02:01:44.814Z,0.10
2024-04-19T02:02:44.713Z,0.10
2024-04-19T02:03:44.884Z,0.20
2024-04-19T02:04:44.724Z,0.10
2024-04-19T02:05:44.671Z,0.10
2024-04-19T02:06:44.831Z,0.20
2024-04-19T02:07:44.647Z,0.10
2024-04-19T02:08:44.640Z,0.10
2024-04-19T02:09:44.741Z,0.10
2024-04-19T02:10:44.602Z,0.20
2024-04-19T02:11:44.634Z,0.10
2024-04-19T02:12:44.856Z,0.20
2024-04-19T02:13:44.576Z,0.10
2024-04-19T02:14:44.552Z,0.10
2024-04-19T02:15:44.652Z,0.10
2024-04-19T02:16:44.532Z,0.20
2024-04-19T02:17:44.622Z,0.10
2024-04-19T02:18:44.518Z,0.10
2024-04-19T02:19:44.482Z,0.10
2024-04-19T02:20:44.469Z,0.10
2024-04-19T02:21:44.532Z,0.10
2024-04-19T02:22:44.452Z,0.10
2024-04-19T02:23:44.434Z,0.10
2024-04-19T02:24:44.516Z,0.10
2024-04-19T02:25:44.407Z,0.20
2024-04-19T02:26:44.391Z,0.10
2024-04-19T02:27:44.512Z,0.20
2024-04-19T02:28:44.366Z,0.10
2024-04-19T02:29:44.359Z,0.20
2024-04-19T02:30:44.455Z,0.10
2024-04-19T02:31:44.334Z,0.20
2024-04-19T02:32:44.394Z,0.10
2024-04-19T02:33:44.410Z,0.20
2024-04-19T02:34:47.826Z,0.10
2024-04-19T02:35:44.274Z,0.20
2024-04-19T02:36:44.307Z,0.10
2024-04-19T02:37:44.254Z,0.10
2024-04-19T02:38:44.255Z,0.10
2024-04-19T02:39:44.272Z,0.10
2024-04-19T02:40:44.216Z,0.10
2024-04-19T02:41:44.195Z,0.10
2024-04-19T02:42:44.270Z,0.10
2024-04-19T02:43:44.167Z,0.10
2024-04-19T02:44:44.162Z,0.20
2024-04-19T02:45:52.863Z,0.10
2024-04-19T02:46:44.210Z,0.10
2024-04-19T02:48:44.229Z,0.10
2024-04-19T02:49:44.101Z,0.10
2024-04-19T02:50:44.086Z,0.20
2024-04-19T02:51:44.103Z,0.10
2024-04-19T02:52:44.067Z,0.20
2024-04-19T02:54:44.112Z,0.20
2024-04-19T02:55:44.025Z,0.10
2024-04-19T02:56:44.039Z,0.10
2024-04-19T02:57:44.105Z,0.10
2024-04-19T02:58:44.023Z,0.10
2024-04-19T02:59:43.971Z,0.10
2024-04-19T03:00:44.053Z,0.10
2024-04-19T03:01:43.939Z,0.10
2024-04-19T03:02:43.992Z,0.20
2024-04-19T03:03:44.063Z,0.10
2024-04-19T03:04:43.993Z,0.10
2024-04-19T03:05:43.896Z,0.20
2024-04-19T03:06:44.143Z,0.10
2024-04-19T03:07:43.935Z,0.20
2024-04-19T03:08:43.865Z,0.10
2024-04-19T03:09:44.080Z,0.20
2024-04-19T03:10:43.927Z,0.20
2024-04-19T03:11:43.907Z,0.10
2024-04-19T03:12:44.109Z,0.10
2024-04-19T03:13:43.964Z,0.20
2024-04-19T03:14:43.778Z,0.10
2024-04-19T03:15:43.873Z,0.20
2024-04-19T03:16:43.755Z,0.10
2024-04-19T03:17:43.782Z,0.20
2024-04-19T03:18:43.882Z,0.10
2024-04-19T03:19:43.709Z,0.20
2024-04-19T03:20:43.693Z,0.10
2024-04-19T03:21:43.773Z,0.20
2024-04-19T03:22:43.666Z,0.10
2024-04-19T03:23:43.665Z,0.20
2024-04-19T03:24:43.717Z,0.10
2024-04-19T03:25:43.635Z,0.20
2024-04-19T03:26:43.611Z,0.10
2024-04-19T03:27:43.684Z,0.20
2024-04-19T03:28:43.606Z,0.10
2024-04-19T03:29:43.578Z,0.20
2024-04-19T03:30:43.609Z,0.10
2024-04-19T03:31:43.551Z,0.20
2024-04-19T03:32:43.603Z,0.10
2024-04-19T03:33:43.667Z,0.10
2024-04-19T03:34:43.505Z,0.10
2024-04-19T03:35:43.498Z,0.10
2024-04-19T03:36:43.620Z,0.20
2024-04-19T03:37:43.484Z,0.10
2024-04-19T03:38:43.452Z,0.10
2024-04-19T03:39:46.353Z,0.10
2024-04-19T03:40:43.427Z,0.20
2024-04-19T03:41:43.419Z,0.10
2024-04-19T03:42:43.488Z,0.20
2024-04-19T03:43:43.393Z,0.20
2024-04-19T03:44:43.388Z,0.10
2024-04-19T03:45:43.526Z,0.20
2024-04-19T03:46:43.359Z,0.20
2024-04-19T03:47:43.381Z,0.10
2024-04-19T03:48:43.348Z,0.10
2024-04-19T03:49:43.312Z,0.20
2024-04-19T03:50:43.304Z,0.10
2024-04-19T03:51:43.367Z,0.20
2024-04-19T03:52:43.272Z,0.10
2024-04-19T03:53:43.259Z,0.20
2024-04-19T03:54:43.270Z,0.10
2024-04-19T03:55:43.227Z,0.10
2024-04-19T03:56:43.221Z,0.20
2024-04-19T03:57:43.322Z,0.10
2024-04-19T03:58:43.190Z,0.20
2024-04-19T03:59:43.181Z,0.10
2024-04-19T04:00:43.381Z,0.20
2024-04-19T04:01:43.160Z,0.10
2024-04-19T04:02:43.182Z,0.20
2024-04-19T04:03:43.185Z,0.20
2024-04-19T04:04:43.137Z,0.20
2024-04-19T04:05:43.102Z,0.10
2024-04-19T04:06:43.232Z,0.20
2024-04-19T04:07:43.075Z,0.10
2024-04-19T04:08:43.063Z,0.20
2024-04-19T04:09:43.111Z,0.20
2024-04-19T04:10:43.032Z,0.20
2024-04-19T04:11:43.021Z,0.10
2024-04-19T04:12:43.057Z,0.20
2024-04-19T04:13:43.012Z,0.10
2024-04-19T04:14:42.986Z,0.20
2024-04-19T04:15:43.007Z,0.10
2024-04-19T04:16:42.968Z,0.10
2024-04-19T04:17:43.022Z,0.10
2024-04-19T04:18:43.012Z,0.20
2024-04-19T04:19:42.922Z,0.10
2024-04-19T04:20:42.910Z,0.20
2024-04-19T04:21:42.988Z,0.10
2024-04-19T04:22:42.894Z,0.20
2024-04-19T04:23:42.868Z,0.10
2024-04-19T04:24:43.041Z,0.20
2024-04-19T04:25:42.847Z,0.10
2024-04-19T04:26:42.839Z,0.20
2024-04-19T04:27:42.872Z,1.20
2024-04-19T04:28:42.803Z,9.00
2024-04-19T04:29:42.804Z,0.40
2024-04-19T04:30:43.365Z,0.50
2024-04-19T04:31:42.800Z,0.30
2024-04-19T04:32:42.787Z,0.50
2024-04-19T04:33:42.783Z,0.40
2024-04-19T04:34:42.726Z,0.50
2024-04-19T04:35:42.743Z,0.30
2024-04-19T04:36:42.795Z,0.40
2024-04-19T04:37:42.705Z,0.40
2024-04-19T04:38:42.678Z,26.60
2024-04-19T04:39:42.785Z,0.30
2024-04-19T04:40:42.661Z,0.50
2024-04-19T04:41:42.654Z,0.30
2024-04-19T04:42:42.678Z,0.50
2024-04-19T04:43:42.628Z,0.40
2024-04-19T04:44:42.634Z,0.50
2024-04-19T04:45:42.616Z,0.30
2024-04-19T04:46:42.581Z,0.40
2024-04-19T04:47:42.656Z,0.30
2024-04-19T04:48:42.590Z,0.40
2024-04-19T04:49:42.546Z,33.00
2024-04-19T04:50:42.526Z,0.40
2024-04-19T04:51:42.582Z,0.40
2024-04-19T04:52:42.502Z,0.50
2024-04-19T04:53:42.489Z,0.30
2024-04-19T04:54:42.509Z,0.40
2024-04-19T04:55:42.466Z,0.30
2024-04-19T04:56:42.462Z,0.40
2024-04-19T04:57:42.551Z,0.30
2024-04-19T04:58:42.425Z,0.50
2024-04-19T04:59:42.412Z,1.10
2024-04-19T05:00:42.474Z,41.70
2024-04-19T05:01:42.389Z,42.00
2024-04-19T05:02:42.402Z,39.40
2024-04-19T05:03:42.375Z,40.20
2024-04-19T05:04:42.412Z,41.50
2024-04-19T05:05:42.337Z,40.90
2024-04-19T05:06:42.351Z,39.20
2024-04-19T05:07:42.327Z,38.90
2024-04-19T05:08:42.297Z,33.70
2024-04-19T05:09:42.340Z,38.09
2024-04-19T05:10:42.271Z,38.20
2024-04-19T05:11:42.292Z,38.70
2024-04-19T05:12:42.281Z,39.20
2024-04-19T05:13:42.238Z,40.90
2024-04-19T05:14:42.218Z,39.40
2024-04-19T05:15:42.264Z,40.09
2024-04-19T05:16:42.196Z,40.40
2024-04-19T05:17:42.218Z,40.50
2024-04-19T05:18:42.265Z,37.70
2024-04-19T05:19:42.152Z,38.90
2024-04-19T05:20:42.153Z,38.09
2024-04-19T05:21:42.188Z,36.70
2024-04-19T05:22:42.115Z,38.70
2024-04-19T05:23:42.120Z,34.50
2024-04-19T05:24:42.121Z,35.79
2024-04-19T05:25:42.084Z,36.09
2024-04-19T05:26:42.063Z,37.70
2024-04-19T05:27:42.111Z,38.59
2024-04-19T05:28:42.043Z,37.50
2024-04-19T05:29:42.063Z,37.29
2024-04-19T05:30:42.018Z,36.40
2024-04-19T05:31:42.036Z,36.50
2024-04-19T05:32:42.036Z,36.00
2024-04-19T05:33:42.000Z,37.29
2024-04-19T05:34:41.957Z,35.50
2024-04-19T05:35:41.948Z,35.50
2024-04-19T05:36:41.988Z,34.79
2024-04-19T05:37:41.927Z,34.40
2024-04-19T05:38:41.905Z,33.59
2024-04-19T05:39:41.958Z,31.79
2024-04-19T05:40:41.887Z,32.90
2024-04-19T05:41:41.863Z,35.29
2024-04-19T05:42:41.926Z,35.70
2024-04-19T05:43:41.840Z,36.70
2024-04-19T05:44:41.822Z,38.29
2024-04-19T05:45:41.837Z,38.50
2024-04-19T05:46:41.797Z,34.59
2024-04-19T05:47:41.863Z,34.40
2024-04-19T05:48:41.830Z,33.79
2024-04-19T05:49:41.777Z,34.70
2024-04-19T05:50:41.756Z,34.09
2024-04-19T05:51:41.773Z,34.29
2024-04-19T05:52:41.759Z,34.50
2024-04-19T05:53:41.705Z,33.90
2024-04-19T05:54:41.692Z,34.50
2024-04-19T05:55:41.685Z,33.79
2024-04-19T05:56:41.669Z,34.09
2024-04-19T05:57:41.700Z,35.20
2024-04-19T05:58:41.638Z,34.50
2024-04-19T05:59:41.626Z,38.00
2024-04-19T06:00:41.713Z,39.90
2024-04-19T06:01:43.341Z,40.79
2024-04-19T06:02:41.666Z,40.00
2024-04-19T06:03:41.693Z,41.40
2024-04-19T06:04:41.571Z,40.29
2024-04-19T06:05:41.567Z,40.90
2024-04-19T06:06:41.561Z,41.00
2024-04-19T06:07:41.532Z,42.40
2024-04-19T06:08:41.540Z,42.79
2024-04-19T06:09:41.526Z,41.79
2024-04-19T06:10:41.499Z,41.59
2024-04-19T06:11:41.497Z,41.79
2024-04-19T06:12:41.485Z,42.40
2024-04-19T06:13:41.441Z,43.79
2024-04-19T06:14:41.428Z,43.09
2024-04-19T06:15:41.445Z,42.50
2024-04-19T06:16:41.401Z,43.29
2024-04-19T06:17:41.456Z,45.29
2024-04-19T06:18:41.437Z,46.20
2024-04-19T06:19:41.361Z,46.59
2024-04-19T06:20:41.356Z,44.40
2024-04-19T06:21:41.383Z,47.79
2024-04-19T06:22:41.320Z,48.40
2024-04-19T06:23:41.307Z,49.59
2024-04-19T06:24:41.327Z,47.29
2024-04-19T06:25:41.281Z,46.20
2024-04-19T06:26:41.266Z,46.50
2024-04-19T06:27:41.275Z,48.20
2024-04-19T06:28:41.238Z,47.09
2024-04-19T06:29:41.227Z,48.00
2024-04-19T06:30:41.316Z,50.29
2024-04-19T06:31:41.256Z,52.09
2024-04-19T06:32:41.208Z,52.20
2024-04-19T06:33:41.278Z,55.50
2024-04-19T06:34:41.169Z,56.79
2024-04-19T06:35:41.153Z,55.50
2024-04-19T06:36:41.192Z,52.40
2024-04-19T06:37:41.127Z,49.09
2024-04-19T06:38:43.094Z,51.09
2024-04-19T06:39:50.442Z,54.00
2024-04-19T06:40:41.113Z,59.00
2024-04-19T06:41:41.069Z,62.09
2024-04-19T06:42:41.073Z,61.09
2024-04-19T06:43:41.047Z,57.59
2024-04-19T06:44:41.035Z,54.20
2024-04-19T06:45:41.060Z,54.59
2024-04-19T06:46:41.001Z,57.59
2024-04-19T06:47:41.043Z,61.20
2024-04-19T06:48:41.044Z,62.09
2024-04-19T06:49:40.965Z,61.40
2024-04-19T06:50:40.949Z,61.79
2024-04-19T06:51:43.843Z,62.59
2024-04-19T06:52:40.927Z,67.40
2024-04-19T06:53:40.944Z,63.09
2024-04-19T06:54:40.926Z,70.59
2024-04-19T06:55:40.889Z,77.30
2024-04-19T06:56:40.894Z,82.80
2024-04-19T06:57:40.932Z,88.30
2024-04-19T06:58:40.847Z,109.30
2024-04-19T06:59:40.851Z,101.59
2024-04-19T07:00:53.836Z,88.30
2024-04-19T07:01:42.949Z,74.00
2024-04-19T07:02:40.930Z,72.09
2024-04-19T07:03:41.403Z,65.90
2024-04-19T07:04:40.815Z,65.59
2024-04-19T07:05:40.784Z,65.90
2024-04-19T07:06:42.830Z,63.70
2024-04-19T07:07:40.742Z,66.00
2024-04-19T07:08:40.716Z,68.00
2024-04-19T07:09:40.715Z,72.50
2024-04-19T07:10:40.777Z,71.30
2024-04-19T07:11:40.687Z,76.90
2024-04-19T07:12:40.761Z,67.80
2024-04-19T07:13:40.653Z,67.50
2024-04-19T07:14:40.669Z,65.19
2024-04-19T07:15:40.676Z,68.90
2024-04-19T07:16:40.648Z,77.69
2024-04-19T07:17:40.630Z,100.59
2024-04-19T07:18:40.704Z,103.09
2024-04-19T07:19:40.575Z,120.30
2024-04-19T07:20:40.578Z,122.50
2024-04-19T07:21:40.580Z,125.40
2024-04-19T07:22:40.539Z,121.69
2024-04-19T07:23:40.542Z,117.59
2024-04-19T07:24:40.590Z,86.69
2024-04-19T07:25:40.496Z,67.59
2024-04-19T07:26:40.490Z,65.19
2024-04-19T07:27:45.442Z,67.19
2024-04-19T07:28:42.469Z,68.50
2024-04-19T07:29:40.441Z,67.59
2024-04-19T07:30:40.443Z,67.90
2024-04-19T07:31:40.430Z,67.69
2024-04-19T07:32:40.506Z,81.50
2024-04-19T07:33:40.481Z,85.09
2024-04-19T07:34:40.383Z,99.69
2024-04-19T07:35:40.367Z,96.59
2024-04-19T07:36:40.389Z,78.50
2024-04-19T07:37:40.364Z,74.00
2024-04-19T07:38:40.344Z,75.09
2024-04-19T07:39:40.340Z,77.40
2024-04-19T07:40:40.328Z,76.59
2024-04-19T07:41:40.292Z,70.59
2024-04-19T07:42:40.284Z,79.30
2024-04-19T07:43:49.143Z,82.69
2024-04-19T07:44:42.266Z,87.50
2024-04-19T07:45:40.253Z,87.80
2024-04-19T07:46:40.226Z,119.40
2024-04-19T07:47:40.268Z,124.09
2024-04-19T07:48:40.267Z,108.19
2024-04-19T07:49:40.201Z,89.90
2024-04-19T07:50:40.178Z,78.50
2024-04-19T07:51:40.202Z,69.69
2024-04-19T07:52:40.156Z,69.69
2024-04-19T07:53:40.152Z,73.80
2024-04-19T07:54:40.178Z,69.69
2024-04-19T07:55:40.109Z,70.69
2024-04-19T07:56:40.094Z,71.90
2024-04-19T07:57:40.146Z,70.30
2024-04-19T07:58:40.085Z,72.00
2024-04-19T07:59:40.059Z,73.69
2024-04-19T08:00:40.133Z,72.30
2024-04-19T08:01:40.082Z,78.09
2024-04-19T08:02:40.026Z,103.40
2024-04-19T08:03:40.037Z,119.09
2024-04-19T08:04:40.006Z,111.00
2024-04-19T08:05:39.976Z,103.19
2024-04-19T08:06:39.979Z,75.40
2024-04-19T08:07:40.936Z,92.19
2024-04-19T08:08:39.942Z,104.50
2024-04-19T08:09:40.093Z,133.69
2024-04-19T08:10:39.912Z,142.50
2024-04-19T08:11:39.905Z,137.00
2024-04-19T08:12:39.926Z,129.60
2024-04-19T08:13:39.876Z,121.69
2024-04-19T08:14:39.867Z,128.60
2024-04-19T08:15:39.864Z,127.09
2024-04-19T08:16:39.877Z,109.90
2024-04-19T08:17:39.850Z,106.00
2024-04-19T08:18:39.846Z,118.30
2024-04-19T08:19:39.791Z,104.80
2024-04-19T08:20:39.783Z,91.40
2024-04-19T08:21:39.807Z,98.90
2024-04-19T08:22:39.756Z,113.30
2024-04-19T08:23:39.742Z,126.09
2024-04-19T08:24:39.795Z,127.40
2024-04-19T08:25:39.899Z,118.80
2024-04-19T08:26:39.721Z,85.40
2024-04-19T08:27:39.701Z,72.19
2024-04-19T08:28:39.675Z,69.59
2024-04-19T08:29:45.666Z,68.90
2024-04-19T08:30:39.803Z,72.50
2024-04-19T08:31:39.636Z,93.90
2024-04-19T08:32:39.710Z,111.59
2024-04-19T08:33:39.657Z,137.30
2024-04-19T08:34:39.602Z,133.39
2024-04-19T08:35:39.600Z,130.19
2024-04-19T08:36:39.638Z,130.10
2024-04-19T08:37:39.554Z,128.39
2024-04-19T08:38:39.550Z,124.30
2024-04-19T08:39:40.818Z,128.10
2024-04-19T08:40:41.820Z,135.19
2024-04-19T08:41:39.534Z,132.00
2024-04-19T08:42:39.499Z,125.40
2024-04-19T08:43:39.512Z,129.89
2024-04-19T08:44:39.474Z,128.30
2024-04-19T08:45:39.507Z,134.00
2024-04-19T08:46:39.441Z,127.40
2024-04-19T08:47:39.493Z,134.30
2024-04-19T08:48:39.555Z,131.19
2024-04-19T08:49:39.403Z,134.69
2024-04-19T08:50:39.387Z,119.90
2024-04-19T08:51:55.821Z,82.90
2024-04-19T08:53:05.287Z,81.09
2024-04-19T08:53:41.420Z,86.40
2024-04-19T08:54:42.538Z,91.40
2024-04-19T08:55:39.320Z,98.30
2024-04-19T08:56:39.315Z,94.69
2024-04-19T08:57:39.310Z,95.80
2024-04-19T08:58:40.000Z,91.80
2024-04-19T08:59:39.281Z,88.30
2024-04-19T09:00:39.279Z,88.69
2024-04-19T09:01:39.273Z,74.69
2024-04-19T09:02:39.233Z,69.50
2024-04-19T09:03:39.300Z,74.80
2024-04-19T09:04:39.260Z,85.09
2024-04-19T09:05:39.189Z,87.09
2024-04-19T09:06:39.261Z,97.19
2024-04-19T09:07:39.164Z,104.30
2024-04-19T09:08:39.150Z,105.59
2024-04-19T09:09:39.160Z,113.69
2024-04-19T09:10:39.126Z,110.19
2024-04-19T09:11:39.150Z,104.69
2024-04-19T09:12:39.104Z,108.19
2024-04-19T09:13:39.099Z,102.59
2024-04-19T09:14:39.091Z,100.50
2024-04-19T09:15:39.076Z,96.50
2024-04-19T09:16:39.049Z,83.50
2024-04-19T09:17:39.080Z,73.00
2024-04-19T09:18:39.035Z,78.30
2024-04-19T09:19:39.008Z,90.80
2024-04-19T09:20:38.996Z,107.00
2024-04-19T09:21:39.007Z,100.30
2024-04-19T09:22:38.972Z,98.00
2024-04-19T09:23:38.955Z,86.90
2024-04-19T09:24:38.973Z,101.40
2024-04-19T09:25:38.928Z,102.59
2024-04-19T09:26:38.933Z,98.00
2024-04-19T09:27:38.948Z,96.00
2024-04-19T09:28:38.891Z,82.90
2024-04-19T09:29:38.900Z,92.59
2024-04-19T09:30:38.923Z,93.40
2024-04-19T09:31:38.859Z,96.09
2024-04-19T09:32:38.885Z,93.50
2024-04-19T09:33:38.923Z,87.09
2024-04-19T09:34:38.813Z,94.69
2024-04-19T09:35:38.811Z,109.19
2024-04-19T09:36:38.836Z,105.00
2024-04-19T09:37:38.780Z,101.00
2024-04-19T09:38:38.766Z,102.80
2024-04-19T09:39:38.790Z,99.40
2024-04-19T09:40:38.755Z,89.90
2024-04-19T09:41:38.747Z,82.30
2024-04-19T09:42:38.761Z,78.50
2024-04-19T09:43:38.732Z,74.40
2024-04-19T09:44:38.693Z,73.00
2024-04-19T09:45:38.739Z,89.69
2024-04-19T09:46:38.694Z,91.40
2024-04-19T09:47:38.664Z,80.30
2024-04-19T09:48:41.264Z,86.69
2024-04-19T09:49:38.636Z,75.40
2024-04-19T09:50:38.610Z,69.09
2024-04-19T09:51:38.609Z,66.40
2024-04-19T09:52:38.586Z,75.69
2024-04-19T09:53:38.577Z,68.69
2024-04-19T09:54:38.605Z,78.50
2024-04-19T09:55:38.547Z,85.40
2024-04-19T09:56:38.545Z,83.59
2024-04-19T09:57:38.546Z,85.19
2024-04-19T09:58:38.509Z,89.09
2024-04-19T09:59:38.491Z,98.40
2024-04-19T10:00:38.669Z,85.80
2024-04-19T10:01:38.525Z,81.69
2024-04-19T10:02:38.544Z,76.19
2024-04-19T10:03:38.586Z,76.50
2024-04-19T10:04:38.551Z,81.19
2024-04-19T10:05:38.416Z,80.30
2024-04-19T10:06:41.540Z,80.69
2024-04-19T10:07:38.409Z,89.80
2024-04-19T10:08:38.388Z,107.09
2024-04-19T10:09:38.388Z,90.40
2024-04-19T10:10:38.350Z,88.90
2024-04-19T10:11:38.337Z,86.69
2024-04-19T10:12:40.758Z,85.09
2024-04-19T10:13:38.309Z,88.69
2024-04-19T10:14:38.294Z,90.59
2024-04-19T10:15:38.310Z,95.59
2024-04-19T10:16:38.267Z,80.90
2024-04-19T10:17:38.375Z,68.50
2024-04-19T10:18:38.522Z,73.69
2024-04-19T10:19:45.060Z,77.09
2024-04-19T10:20:40.218Z,95.00
2024-04-19T10:21:38.260Z,81.19
2024-04-19T10:22:38.197Z,81.69
2024-04-19T10:23:38.210Z,91.30
2024-04-19T10:24:38.169Z,90.50
2024-04-19T10:25:38.151Z,102.19
2024-04-19T10:26:38.138Z,97.50
2024-04-19T10:27:38.178Z,113.40
2024-04-19T10:28:38.111Z,107.00
2024-04-19T10:29:38.943Z,88.69
2024-04-19T10:30:38.131Z,86.80
2024-04-19T10:31:38.087Z,82.90
2024-04-19T10:32:38.091Z,69.40
2024-04-19T10:33:38.073Z,69.00
2024-04-19T10:34:38.036Z,68.00
2024-04-19T10:35:38.018Z,56.00
2024-04-19T10:36:38.042Z,59.59
2024-04-19T10:37:37.997Z,68.09
2024-04-19T10:38:37.975Z,99.50
2024-04-19T10:39:37.978Z,89.50
2024-04-19T10:40:37.956Z,78.80
2024-04-19T10:41:37.936Z,76.40
2024-04-19T10:42:40.744Z,75.09
2024-04-19T10:43:37.913Z,73.90
2024-04-19T10:44:37.899Z,85.00
2024-04-19T10:45:37.990Z,72.09
2024-04-19T10:46:37.867Z,88.40
2024-04-19T10:47:37.938Z,83.90
2024-04-19T10:49:37.835Z,83.09
2024-04-19T10:50:37.829Z,83.00
2024-04-19T10:51:37.828Z,83.30
2024-04-19T10:52:37.801Z,70.19
2024-04-19T10:53:37.783Z,77.90
2024-04-19T10:54:37.805Z,83.40
2024-04-19T10:55:37.746Z,86.90
2024-04-19T10:56:37.737Z,88.59
2024-04-19T10:57:37.752Z,93.30
2024-04-19T10:58:37.716Z,96.19
2024-04-19T10:59:37.727Z,97.69
2024-04-19T11:00:39.012Z,102.30
2024-04-19T11:01:37.778Z,83.90
2024-04-19T11:02:37.691Z,91.50
2024-04-19T11:03:37.765Z,96.19
2024-04-19T11:04:37.636Z,102.19
2024-04-19T11:05:37.643Z,122.80
2024-04-19T11:06:37.627Z,116.80
2024-04-19T11:07:37.583Z,98.30
2024-04-19T11:08:37.569Z,98.30
2024-04-19T11:09:37.625Z,97.00
2024-04-19T11:10:37.540Z,109.00
2024-04-19T11:11:37.549Z,102.50
2024-04-19T11:12:39.491Z,100.90
2024-04-19T11:13:37.500Z,86.40
2024-04-19T11:14:37.492Z,85.19
2024-04-19T11:15:47.966Z,84.59
2024-04-19T11:16:39.456Z,101.69
2024-04-19T11:17:37.481Z,94.59
2024-04-19T11:18:37.702Z,99.30
2024-04-19T11:19:37.487Z,119.40
2024-04-19T11:20:37.400Z,92.80
2024-04-19T11:21:37.434Z,72.19
2024-04-19T11:22:37.373Z,85.40
2024-04-19T11:23:37.438Z,110.00
2024-04-19T11:24:37.380Z,119.69
2024-04-19T11:25:37.337Z,110.09
2024-04-19T11:26:37.321Z,121.80
2024-04-19T11:27:37.339Z,121.00
2024-04-19T11:28:37.294Z,121.90
2024-04-19T11:29:37.283Z,113.69
2024-04-19T11:30:37.294Z,97.00
2024-04-19T11:31:37.283Z,79.19
2024-04-19T11:32:37.266Z,83.00
2024-04-19T11:33:37.251Z,90.69
2024-04-19T11:34:39.528Z,87.80
2024-04-19T11:35:37.203Z,79.40
2024-04-19T11:36:37.347Z,84.80
2024-04-19T11:37:37.192Z,81.80
2024-04-19T11:38:37.159Z,88.59
2024-04-19T11:39:37.175Z,86.09
2024-04-19T11:40:37.134Z,78.90
2024-04-19T11:41:37.130Z,72.80
2024-04-19T11:42:37.125Z,73.90
2024-04-19T11:43:37.107Z,81.90
2024-04-19T11:44:37.078Z,76.59
2024-04-19T11:45:37.090Z,67.50
2024-04-19T11:46:38.733Z,76.19
2024-04-19T11:47:37.108Z,69.59
2024-04-19T11:48:37.125Z,65.80
2024-04-19T11:49:37.023Z,64.80
2024-04-19T11:50:37.010Z,67.69
2024-04-19T11:51:37.164Z,66.40
2024-04-19T11:52:38.221Z,80.30
2024-04-19T11:53:37.001Z,80.90
2024-04-19T11:54:36.984Z,83.80
2024-04-19T11:55:36.940Z,72.40
2024-04-19T11:56:36.975Z,80.00
2024-04-19T11:57:36.991Z,74.80
2024-04-19T11:58:36.897Z,82.30
2024-04-19T11:59:36.898Z,87.50
2024-04-19T12:00:36.896Z,81.59
2024-04-19T12:01:36.990Z,69.59
2024-04-19T12:02:36.842Z,71.09
2024-04-19T12:03:37.080Z,85.50
2024-04-19T12:04:38.097Z,96.69
2024-04-19T12:05:36.837Z,94.90
2024-04-19T12:06:36.901Z,89.30
2024-04-19T12:07:36.782Z,91.00
2024-04-19T12:08:36.768Z,93.09
2024-04-19T12:09:36.771Z,93.40
2024-04-19T12:10:36.741Z,80.09
2024-04-19T12:11:36.728Z,89.80
2024-04-19T12:13:15.144Z,90.00
2024-04-19T12:14:23.716Z,89.90
2024-04-19T12:15:23.245Z,88.40
2024-04-19T12:16:16.399Z,109.90
2024-04-19T12:16:43.219Z,103.00
2024-04-19T12:17:38.934Z,92.50
2024-04-19T12:18:36.902Z,91.00
2024-04-19T12:19:36.862Z,93.59
2024-04-19T12:20:47.043Z,95.40
2024-04-19T12:21:37.451Z,91.59
2024-04-19T12:22:40.007Z,92.09
2024-04-19T12:23:40.056Z,108.69
2024-04-19T12:24:38.528Z,93.69
2024-04-19T12:25:36.894Z,81.19
2024-04-19T12:26:36.898Z,81.09
2024-04-19T12:27:36.680Z,91.59
2024-04-19T12:28:37.826Z,90.19
2024-04-19T12:29:36.601Z,79.69
2024-04-19T12:30:36.538Z,83.40
2024-04-19T12:31:36.466Z,102.50
2024-04-19T12:32:36.534Z,118.00
2024-04-19T12:33:36.583Z,109.69
2024-04-19T12:34:36.928Z,89.00
2024-04-19T12:35:36.464Z,70.69
2024-04-19T12:36:36.419Z,72.09
2024-04-19T12:37:36.383Z,64.80
2024-04-19T12:38:36.377Z,66.40
2024-04-19T12:39:36.409Z,72.09
2024-04-19T12:40:37.671Z,85.19
2024-04-19T12:41:36.434Z,92.09
2024-04-19T12:42:36.463Z,83.50
2024-04-19T12:43:36.380Z,74.00
2024-04-19T12:44:36.310Z,80.19
2024-04-19T12:45:36.337Z,85.90
2024-04-19T12:46:37.196Z,96.00
2024-04-19T12:47:36.311Z,91.30
2024-04-19T12:48:36.383Z,82.69
2024-04-19T12:49:36.233Z,76.59
2024-04-19T12:50:36.222Z,71.69
2024-04-19T12:51:36.279Z,73.90
2024-04-19T12:52:36.226Z,62.50
2024-04-19T12:53:36.194Z,63.29
2024-04-19T12:54:36.180Z,63.50
2024-04-19T12:55:36.209Z,64.80
2024-04-19T12:56:36.150Z,64.19
2024-04-19T12:57:36.162Z,62.20
2024-04-19T12:58:36.121Z,61.09
2024-04-19T12:59:36.132Z,60.29
2024-04-19T13:00:36.146Z,54.09
2024-04-19T13:01:36.155Z,57.79
2024-04-19T13:02:36.078Z,59.20